St. Elmo — WDG2405 — position and weather

sailwx.info

Track history (hours):
 
Tides and Currents Weather Stations Pressure Air Temp Water Temp Dewpoint Dewpoint Depression Visibility Wind Speed Wind Dir Waves Ship Positions

St. Elmo

Owner: Marquette Transportation Company Gulf-Inland, LLC, Jefferson, LA. More information available from US FCC via Universal Licensing System and Coast Guard Vessel Documentation Center.

Last reported at 2015-Jan-29 09:33 UTC. Time now 2015-Jan-29 10:23 UTC.
Position N 29°46' W 095°06'.

; draft 3.2 m.

MMSI: 367515330.

Date/timePositionNaut miles runAvg speedWind from/ knotsBaromVisibWave heightAir tempDewpointWater temp
2015-Jan-29 09:33N 29°46' W 095°06'0 0.0
2015-Jan-29 08:33N 29°46' W 095°06'0 0.0
2015-Jan-29 07:33N 29°46' W 095°06'0 0.0
2015-Jan-29 06:33N 29°46' W 095°06'0 0.0
2015-Jan-29 05:33N 29°46' W 095°06'0 0.0
2015-Jan-29 04:33N 29°46' W 095°06'0 0.0
2015-Jan-29 03:33N 29°46' W 095°06'0 0.0
2015-Jan-29 02:33N 29°46' W 095°06'0 0.0
2015-Jan-29 01:33N 29°46' W 095°06'0 0.0
2015-Jan-29 00:33N 29°46' W 095°06'0 0.0
2015-Jan-28 23:33N 29°46' W 095°06'1 0.6
2015-Jan-28 22:33N 29°46' W 095°06'0 0.0
2015-Jan-28 21:33N 29°46' W 095°06'0 0.0
2015-Jan-28 20:33N 29°46' W 095°06'0 0.0
2015-Jan-28 19:32N 29°46' W 095°06'0 0.0
2015-Jan-28 18:33N 29°46' W 095°06'0 0.0
2015-Jan-28 17:33N 29°46' W 095°06'0 0.4
2015-Jan-28 16:33N 29°45' W 095°06'7 6.9
2015-Jan-28 15:33N 29°43' W 095°13'1 1.4
2015-Jan-28 14:33N 29°44' W 095°15'0 0.0
2015-Jan-28 13:33N 29°44' W 095°15'1 0.9
2015-Jan-28 12:33N 29°43' W 095°14'6 6.2
2015-Jan-28 11:33N 29°44' W 095°07'2 2.0
2015-Jan-28 10:33N 29°46' W 095°05'0 0.0
2015-Jan-28 09:33N 29°46' W 095°05'0 0.0
2015-Jan-28 08:33N 29°46' W 095°05'0 0.0
2015-Jan-28 07:33N 29°46' W 095°05'0 0.0
2015-Jan-28 06:33N 29°46' W 095°05'0 0.0
2015-Jan-28 05:33N 29°46' W 095°05'0 0.0
2015-Jan-28 04:33N 29°46' W 095°05'0 0.0
2015-Jan-28 03:33N 29°46' W 095°05'2 1.7
2015-Jan-28 02:27N 29°47' W 095°04'1 1.6
2015-Jan-28 01:33N 29°46' W 095°05'5 5.2
2015-Jan-28 00:33N 29°42' W 095°01'  
2015-Jan-25 12:09N 29°26' W 094°43'0 0.0
2015-Jan-25 11:33N 29°26' W 094°43'0 0.0
2015-Jan-25 10:32N 29°26' W 094°43'0 0.0
2015-Jan-25 09:31N 29°26' W 094°43'14 0.5
2015-Jan-24 05:20N 29°34' W 094°56'15 4.9
2015-Jan-24 02:22N 29°46' W 095°06'0 0.0
2015-Jan-23 23:33N 29°46' W 095°06'0 0.0
2015-Jan-23 16:34N 29°46' W 095°06'0 0.0
2015-Jan-23 15:33N 29°46' W 095°06'0 0.0
2015-Jan-23 14:33N 29°46' W 095°06'0 0.0
2015-Jan-22 15:33N 29°46' W 095°05'0 0.0
2015-Jan-22 14:33N 29°46' W 095°06'0 0.1
2015-Jan-22 13:33N 29°46' W 095°06'0 0.1
2015-Jan-22 12:34N 29°46' W 095°05'0 0.0
2015-Jan-22 08:11N 29°46' W 095°06'0 0.0
2015-Jan-22 07:33N 29°46' W 095°06'0 0.1
2015-Jan-22 06:33N 29°46' W 095°06'0 0.1
2015-Jan-22 05:33N 29°46' W 095°05'0 0.0
2015-Jan-22 04:33N 29°46' W 095°06'0 0.1
2015-Jan-22 03:33N 29°46' W 095°05'0 0.1
2015-Jan-22 02:33N 29°46' W 095°06'1 0.6
2015-Jan-22 00:32N 29°47' W 095°06'0 0.0
2015-Jan-21 17:30N 29°47' W 095°06'1 1.5
2015-Jan-21 16:33N 29°46' W 095°05'0 0.3
2015-Jan-21 15:33N 29°46' W 095°05'0 0.2
2015-Jan-21 14:33N 29°46' W 095°06'0 0.0
2015-Jan-21 13:33N 29°46' W 095°06'0 0.0
2015-Jan-21 12:33N 29°46' W 095°06'0 0.0
2015-Jan-21 11:33N 29°46' W 095°06'0 0.0
2015-Jan-21 10:33N 29°46' W 095°06'0 0.0
2015-Jan-21 09:33N 29°46' W 095°06'0 0.0
2015-Jan-21 08:33N 29°46' W 095°06'0 0.0
2015-Jan-21 07:33N 29°46' W 095°06'0 0.0
2015-Jan-21 06:33N 29°46' W 095°06'0 0.0
2015-Jan-21 05:33N 29°46' W 095°06'0 0.0
2015-Jan-21 04:33N 29°46' W 095°06'0 0.0
2015-Jan-21 03:33N 29°46' W 095°06'0 0.0
2015-Jan-21 02:22N 29°46' W 095°06'0 0.0
2015-Jan-21 01:33N 29°46' W 095°06'0 0.0
2015-Jan-21 00:33N 29°46' W 095°06'0 0.0
2015-Jan-20 23:33N 29°46' W 095°05'0 0.0
2015-Jan-20 22:33N 29°46' W 095°06'0 0.0
2015-Jan-20 21:34N 29°46' W 095°06'0 0.0
2015-Jan-20 20:33N 29°46' W 095°06'0 0.0
2015-Jan-20 19:33N 29°46' W 095°06'0 0.0
2015-Jan-20 18:33N 29°46' W 095°06'0 0.0
2015-Jan-20 17:33N 29°46' W 095°06'0 0.0
2015-Jan-20 16:33N 29°46' W 095°06'0 0.0
2015-Jan-20 15:33N 29°46' W 095°06'0 0.0
2015-Jan-20 14:33N 29°46' W 095°06'0 0.0
2015-Jan-20 13:33N 29°46' W 095°06'0 0.0
2015-Jan-20 12:33N 29°46' W 095°06'0 0.0
2015-Jan-20 11:33N 29°46' W 095°06'0 0.0
2015-Jan-20 10:33N 29°46' W 095°06'0 0.0
2015-Jan-20 09:33N 29°46' W 095°06'0 0.0
2015-Jan-20 08:33N 29°46' W 095°06'0 0.0
2015-Jan-20 07:33N 29°46' W 095°06'0 0.0
2015-Jan-20 06:33N 29°46' W 095°06'0 0.0
2015-Jan-20 05:33N 29°46' W 095°06'0 0.0
2015-Jan-20 04:33N 29°46' W 095°06'0 0.0
2015-Jan-20 03:33N 29°46' W 095°06'1 0.6
2015-Jan-20 02:33N 29°46' W 095°06'0 0.0
2015-Jan-20 01:33N 29°46' W 095°06'0 0.0
2015-Jan-20 00:34N 29°46' W 095°06'1 0.7
2015-Jan-19 23:33N 29°46' W 095°05'0 0.0
2015-Jan-19 22:33N 29°46' W 095°05'0 0.0
2015-Jan-19 21:33N 29°46' W 095°05'0 0.0
2015-Jan-19 20:33N 29°46' W 095°05'0 0.0
2015-Jan-19 19:33N 29°46' W 095°05'0 0.0
2015-Jan-19 18:33N 29°46' W 095°05'0 0.0
2015-Jan-19 17:33N 29°46' W 095°05'0 0.0
2015-Jan-19 16:33N 29°46' W 095°05'0 0.0
2015-Jan-19 15:34N 29°46' W 095°05'0 0.0
2015-Jan-19 14:33N 29°46' W 095°05'0 0.0
2015-Jan-19 13:33N 29°46' W 095°05'0 0.0
2015-Jan-19 12:33N 29°46' W 095°05'0 0.0
2015-Jan-19 11:33N 29°46' W 095°05'0 0.0
2015-Jan-19 10:33N 29°46' W 095°05'  
Track history (hours):
 
Tides and Currents Weather Stations Pressure Air Temp Water Temp Dewpoint Dewpoint Depression Visibility Wind Speed Wind Dir Waves Ship Positions

St. Elmo

Owner: Marquette Transportation Company Gulf-Inland, LLC, Jefferson, LA. More information available from US FCC via Universal Licensing System and Coast Guard Vessel Documentation Center.

Last reported at 2015-Jan-29 09:33 UTC. Time now 2015-Jan-29 10:23 UTC.
Position N 29°46' W 095°06'.

; draft 3.2 m.

MMSI: 367515330.

Date/timePositionNaut miles runAvg speedWind from/ knotsBaromVisibWave heightAir tempDewpointWater temp
2015-Jan-29 09:33N 29°46' W 095°06'0 0.0
2015-Jan-29 08:33N 29°46' W 095°06'0 0.0
2015-Jan-29 07:33N 29°46' W 095°06'0 0.0
2015-Jan-29 06:33N 29°46' W 095°06'0 0.0
2015-Jan-29 05:33N 29°46' W 095°06'0 0.0
2015-Jan-29 04:33N 29°46' W 095°06'0 0.0
2015-Jan-29 03:33N 29°46' W 095°06'0 0.0
2015-Jan-29 02:33N 29°46' W 095°06'0 0.0
2015-Jan-29 01:33N 29°46' W 095°06'0 0.0
2015-Jan-29 00:33N 29°46' W 095°06'0 0.0
2015-Jan-28 23:33N 29°46' W 095°06'1 0.6
2015-Jan-28 22:33N 29°46' W 095°06'0 0.0
2015-Jan-28 21:33N 29°46' W 095°06'0 0.0
2015-Jan-28 20:33N 29°46' W 095°06'0 0.0
2015-Jan-28 19:32N 29°46' W 095°06'0 0.0
2015-Jan-28 18:33N 29°46' W 095°06'0 0.0
2015-Jan-28 17:33N 29°46' W 095°06'0 0.4
2015-Jan-28 16:33N 29°45' W 095°06'7 6.9
2015-Jan-28 15:33N 29°43' W 095°13'1 1.4
2015-Jan-28 14:33N 29°44' W 095°15'0 0.0
2015-Jan-28 13:33N 29°44' W 095°15'1 0.9
2015-Jan-28 12:33N 29°43' W 095°14'6 6.2
2015-Jan-28 11:33N 29°44' W 095°07'2 2.0
2015-Jan-28 10:33N 29°46' W 095°05'0 0.0
2015-Jan-28 09:33N 29°46' W 095°05'0 0.0
2015-Jan-28 08:33N 29°46' W 095°05'0 0.0
2015-Jan-28 07:33N 29°46' W 095°05'0 0.0
2015-Jan-28 06:33N 29°46' W 095°05'0 0.0
2015-Jan-28 05:33N 29°46' W 095°05'0 0.0
2015-Jan-28 04:33N 29°46' W 095°05'0 0.0
2015-Jan-28 03:33N 29°46' W 095°05'2 1.7
2015-Jan-28 02:27N 29°47' W 095°04'1 1.6
2015-Jan-28 01:33N 29°46' W 095°05'5 5.2
2015-Jan-28 00:33N 29°42' W 095°01'  
2015-Jan-25 12:09N 29°26' W 094°43'0 0.0
2015-Jan-25 11:33N 29°26' W 094°43'0 0.0
2015-Jan-25 10:32N 29°26' W 094°43'0 0.0
2015-Jan-25 09:31N 29°26' W 094°43'14 0.5
2015-Jan-24 05:20N 29°34' W 094°56'15 4.9
2015-Jan-24 02:22N 29°46' W 095°06'0 0.0
2015-Jan-23 23:33N 29°46' W 095°06'0 0.0
2015-Jan-23 16:34N 29°46' W 095°06'0 0.0
2015-Jan-23 15:33N 29°46' W 095°06'0 0.0
2015-Jan-23 14:33N 29°46' W 095°06'0 0.0
2015-Jan-22 15:33N 29°46' W 095°05'0 0.0
2015-Jan-22 14:33N 29°46' W 095°06'0 0.1
2015-Jan-22 13:33N 29°46' W 095°06'0 0.1
2015-Jan-22 12:34N 29°46' W 095°05'0 0.0
2015-Jan-22 08:11N 29°46' W 095°06'0 0.0
2015-Jan-22 07:33N 29°46' W 095°06'0 0.1
2015-Jan-22 06:33N 29°46' W 095°06'0 0.1
2015-Jan-22 05:33N 29°46' W 095°05'0 0.0
2015-Jan-22 04:33N 29°46' W 095°06'0 0.1
2015-Jan-22 03:33N 29°46' W 095°05'0 0.1
2015-Jan-22 02:33N 29°46' W 095°06'1 0.6
2015-Jan-22 00:32N 29°47' W 095°06'0 0.0
2015-Jan-21 17:30N 29°47' W 095°06'1 1.5
2015-Jan-21 16:33N 29°46' W 095°05'0 0.3
2015-Jan-21 15:33N 29°46' W 095°05'0 0.2
2015-Jan-21 14:33N 29°46' W 095°06'0 0.0
2015-Jan-21 13:33N 29°46' W 095°06'0 0.0
2015-Jan-21 12:33N 29°46' W 095°06'0 0.0
2015-Jan-21 11:33N 29°46' W 095°06'0 0.0
2015-Jan-21 10:33N 29°46' W 095°06'0 0.0
2015-Jan-21 09:33N 29°46' W 095°06'0 0.0
2015-Jan-21 08:33N 29°46' W 095°06'0 0.0
2015-Jan-21 07:33N 29°46' W 095°06'0 0.0
2015-Jan-21 06:33N 29°46' W 095°06'0 0.0
2015-Jan-21 05:33N 29°46' W 095°06'0 0.0
2015-Jan-21 04:33N 29°46' W 095°06'0 0.0
2015-Jan-21 03:33N 29°46' W 095°06'0 0.0
2015-Jan-21 02:22N 29°46' W 095°06'0 0.0
2015-Jan-21 01:33N 29°46' W 095°06'0 0.0
2015-Jan-21 00:33N 29°46' W 095°06'0 0.0
2015-Jan-20 23:33N 29°46' W 095°05'0 0.0
2015-Jan-20 22:33N 29°46' W 095°06'0 0.0
2015-Jan-20 21:34N 29°46' W 095°06'0 0.0
2015-Jan-20 20:33N 29°46' W 095°06'0 0.0
2015-Jan-20 19:33N 29°46' W 095°06'0 0.0
2015-Jan-20 18:33N 29°46' W 095°06'0 0.0
2015-Jan-20 17:33N 29°46' W 095°06'0 0.0
2015-Jan-20 16:33N 29°46' W 095°06'0 0.0
2015-Jan-20 15:33N 29°46' W 095°06'0 0.0
2015-Jan-20 14:33N 29°46' W 095°06'0 0.0
2015-Jan-20 13:33N 29°46' W 095°06'0 0.0
2015-Jan-20 12:33N 29°46' W 095°06'0 0.0
2015-Jan-20 11:33N 29°46' W 095°06'0 0.0
2015-Jan-20 10:33N 29°46' W 095°06'0 0.0
2015-Jan-20 09:33N 29°46' W 095°06'0 0.0
2015-Jan-20 08:33N 29°46' W 095°06'0 0.0
2015-Jan-20 07:33N 29°46' W 095°06'0 0.0
2015-Jan-20 06:33N 29°46' W 095°06'0 0.0
2015-Jan-20 05:33N 29°46' W 095°06'0 0.0
2015-Jan-20 04:33N 29°46' W 095°06'0 0.0
2015-Jan-20 03:33N 29°46' W 095°06'1 0.6
2015-Jan-20 02:33N 29°46' W 095°06'0 0.0
2015-Jan-20 01:33N 29°46' W 095°06'0 0.0
2015-Jan-20 00:34N 29°46' W 095°06'1 0.7
2015-Jan-19 23:33N 29°46' W 095°05'0 0.0
2015-Jan-19 22:33N 29°46' W 095°05'0 0.0
2015-Jan-19 21:33N 29°46' W 095°05'0 0.0
2015-Jan-19 20:33N 29°46' W 095°05'0 0.0
2015-Jan-19 19:33N 29°46' W 095°05'0 0.0
2015-Jan-19 18:33N 29°46' W 095°05'0 0.0
2015-Jan-19 17:33N 29°46' W 095°05'0 0.0
2015-Jan-19 16:33N 29°46' W 095°05'0 0.0
2015-Jan-19 15:34N 29°46' W 095°05'0 0.0
2015-Jan-19 14:33N 29°46' W 095°05'0 0.0
2015-Jan-19 13:33N 29°46' W 095°05'0 0.0
2015-Jan-19 12:33N 29°46' W 095°05'0 0.0
2015-Jan-19 11:33N 29°46' W 095°05'0 0.0
2015-Jan-19 10:33N 29°46' W 095°05'  

Dump ship's entire track history